Time;durP1;ratioP1;P1;durP2;ratioP2;P2;SDS_P1;SDS_P2;PMS_P1;PMS_P2;Temp;Humidity;BMP_temperature;BMP_pressure;BME280_temperature;BME280_humidity;BME280_pressure;Samples;Min_cycle;Max_cycle;Signal;HPM_P1;HPM_P2
2023/09/11 00:01:21;;;;;;;0.40;0.40;;;;;;;18.23;60.94;100081.66;4955791;28;20109;-88
2023/09/11 00:03:49;;;;;;;0.20;0.20;;;;;;;17.62;63.27;100079.53;4973739;28;20031;-91
2023/09/11 00:06:14;;;;;;;0.82;0.40;;;;;;;17.71;63.36;100101.38;4957239;28;20042;-90
2023/09/11 00:08:39;;;;;;;0.50;0.50;;;;;;;17.58;63.76;100091.25;4974100;28;20031;-91
2023/09/11 00:11:05;;;;;;;1.48;1.02;;;;;;;17.31;64.32;100054.03;4973809;28;20041;-90
2023/09/11 00:13:31;;;;;;;0.30;0.30;;;;;;;17.81;63.54;100091.25;4972359;28;20406;-92
2023/09/11 00:15:57;;;;;;;0.28;0.22;;;;;;;17.44;63.87;100057.97;4958174;28;20034;-92
2023/09/11 00:18:26;;;;;;;1.35;0.95;;;;;;;17.62;63.92;100096.41;4976002;28;20037;-96
2023/09/11 00:20:51;;;;;;;0.50;0.50;;;;;;;17.39;65.01;100102.59;4942402;28;20035;-95
2023/09/11 00:23:17;;;;;;;0.47;0.47;;;;;;;17.35;64.65;100071.66;4941489;28;20469;-92
2023/09/11 00:25:44;;;;;;;0.63;0.57;;;;;;;17.68;64.55;100100.66;4940946;28;20164;-93
2023/09/11 00:28:09;;;;;;;0.80;0.80;;;;;;;17.62;64.42;100079.53;4970820;28;20089;-91
2023/09/11 00:30:36;;;;;;;1.85;0.98;;;;;;;17.72;64.57;100105.81;4953831;28;20039;-96
2023/09/11 00:33:02;;;;;;;0.25;0.25;;;;;;;17.53;64.56;100072.75;4941488;28;20038;-91
2023/09/11 00:35:27;;;;;;;0.17;0.17;;;;;;;17.47;64.23;100049.88;4955714;28;20133;-88
2023/09/11 00:37:53;;;;;;;0.30;0.30;;;;;;;17.66;63.93;100067.84;4972990;28;20034;-90
2023/09/11 00:40:18;;;;;;;0.35;0.35;;;;;;;17.72;63.93;100060.47;4973113;28;20093;-89
2023/09/11 00:42:44;;;;;;;0.20;0.20;;;;;;;17.94;63.64;100078.31;4972839;28;20058;-89
2023/09/11 00:45:12;;;;;;;3.10;1.40;;;;;;;17.74;63.38;100043.53;4973452;28;20495;-88
2023/09/11 00:47:44;;;;;;;0.25;0.25;;;;;;;17.72;63.78;100068.47;4973004;28;20045;-89
2023/09/11 00:50:10;;;;;;;0.20;0.20;;;;;;;17.75;64.29;100098.59;4972313;28;20043;-89
2023/09/11 00:52:36;;;;;;;0.20;0.20;;;;;;;17.42;65.30;100094.47;4973174;28;20050;-95
2023/09/11 00:55:05;;;;;;;1.10;1.05;;;;;;;17.33;65.24;100084.16;4940473;28;20042;-92
2023/09/11 00:57:31;;;;;;;0.95;0.73;;;;;;;17.33;65.61;100079.72;4955380;28;20031;-95
2023/09/11 01:00:00;;;;;;;0.20;0.20;;;;;;;17.04;65.84;100010.59;4973793;28;20069;-91
2023/09/11 01:02:25;;;;;;;0.70;0.45;;;;;;;17.27;65.81;100039.94;4955205;28;20161;-94
2023/09/11 01:04:51;;;;;;;0.63;0.60;;;;;;;17.64;65.37;100083.00;4956107;28;20560;-95
2023/09/11 01:07:18;;;;;;;0.20;0.20;;;;;;;17.49;65.24;100034.66;4963385;28;20394;-96
2023/09/11 01:09:45;;;;;;;0.47;0.20;;;;;;;17.65;65.34;100087.44;4962822;28;20115;-96
2023/09/11 01:12:16;;;;;;;0.77;0.55;;;;;;;17.75;65.17;100094.16;4966096;28;20041;-96
2023/09/11 01:14:52;;;;;;;0.52;0.38;;;;;;;17.43;65.21;100047.38;4932184;28;20047;-94
2023/09/11 01:17:39;;;;;;;0.77;0.70;;;;;;;17.56;65.76;100082.44;4941251;28;20043;-94
2023/09/11 01:20:26;;;;;;;1.25;1.02;;;;;;;17.50;66.07;100084.41;4954894;28;20067;-93
2023/09/11 01:23:26;;;;;;;0.28;0.28;;;;;;;17.69;65.35;100089.06;4936214;29;20061;-91
2023/09/11 01:26:27;;;;;;;0.80;0.80;;;;;;;17.62;65.50;100088.41;4952863;28;20069;-89
2023/09/11 01:29:38;;;;;;;0.43;0.38;;;;;;;17.32;66.34;100083.28;4947954;28;20162;-91
2023/09/11 01:32:06;;;;;;;0.20;0.20;;;;;;;17.08;66.26;100045.06;4932352;29;20576;-91
2023/09/11 01:34:31;;;;;;;0.43;0.35;;;;;;;17.37;66.48;100077.78;4915313;29;20518;-92
2023/09/11 01:36:57;;;;;;;4.18;1.88;;;;;;;17.42;66.03;100061.63;4931279;29;20078;-91
2023/09/11 01:39:23;;;;;;;0.38;0.38;;;;;;;17.61;65.32;100059.13;4915768;29;20043;-89
2023/09/11 01:41:53;;;;;;;0.70;0.70;;;;;;;17.56;65.36;100048.63;4932286;29;20085;-92
2023/09/11 01:44:26;;;;;;;0.75;0.75;;;;;;;17.56;65.38;100047.75;4931370;29;20123;-90
2023/09/11 01:46:53;;;;;;;0.38;0.35;;;;;;;17.33;66.06;100028.16;4915260;29;20044;-88
2023/09/11 01:49:20;;;;;;;0.63;0.40;;;;;;;17.64;65.66;100070.56;4915092;29;20043;-90
2023/09/11 01:51:49;;;;;;;4.20;1.23;;;;;;;17.39;65.41;100040.41;4930919;29;20150;-89
2023/09/11 01:54:16;;;;;;;1.10;0.40;;;;;;;17.25;65.38;100038.25;4932095;29;20442;-91
2023/09/11 01:56:41;;;;;;;0.17;0.17;;;;;;;17.13;65.96;100069.78;4915069;29;20044;-89
2023/09/11 01:59:07;;;;;;;0.40;0.40;;;;;;;16.78;66.26;100017.72;4930803;29;20040;-89
2023/09/11 02:01:32;;;;;;;0.60;0.57;;;;;;;17.03;66.24;100051.50;4930552;29;20057;-88
2023/09/11 02:03:58;;;;;;;0.30;0.30;;;;;;;16.66;64.85;99989.72;4931212;29;20122;-88
2023/09/11 02:06:23;;;;;;;0.52;0.40;;;;;;;16.85;64.78;100061.84;4930833;29;20042;-88
2023/09/11 02:08:49;;;;;;;0.22;0.22;;;;;;;16.57;64.86;100036.16;4950156;28;20101;-88
2023/09/11 02:11:14;;;;;;;0.30;0.30;;;;;;;16.44;65.78;100014.41;4971306;28;20070;-89
2023/09/11 02:13:41;;;;;;;0.32;0.32;;;;;;;16.58;66.12;100058.34;4955012;28;20045;-88
2023/09/11 02:16:07;;;;;;;0.40;0.40;;;;;;;16.14;66.73;100032.28;4971155;28;20027;-88
2023/09/11 02:18:32;;;;;;;0.95;0.93;;;;;;;16.02;66.11;100022.03;4971712;28;20428;-89
2023/09/11 02:20:58;;;;;;;;;;;;;;;15.88;67.32;100059.69;4971858;28;20038;-91
2023/09/11 02:23:23;;;;;;;0.25;0.25;;;;;;;15.43;68.10;100025.59;4971881;28;19914;-90
2023/09/11 02:25:49;;;;;;;;;;;;;;;15.49;69.04;100054.66;4955008;28;20525;-91
2023/09/11 02:28:14;;;;;;;0.10;0.10;;;;;;;15.48;68.41;100005.94;4971744;28;20400;-92
2023/09/11 02:30:40;;;;;;;0.28;0.28;;;;;;;15.94;67.72;100054.19;4953756;28;20501;-92
2023/09/11 02:33:06;;;;;;;0.20;0.20;;;;;;;15.81;67.80;100026.25;4938167;28;20490;-91
2023/09/11 02:35:31;;;;;;;0.70;0.57;;;;;;;15.92;67.72;100045.41;4955305;28;20031;-91
2023/09/11 02:37:58;;;;;;;2.40;0.52;;;;;;;15.63;67.63;100006.38;4977399;28;20114;-91
2023/09/11 02:40:23;;;;;;;0.63;0.60;;;;;;;15.50;68.41;99992.59;4960144;28;20085;-89
2023/09/11 02:42:49;;;;;;;0.50;0.50;;;;;;;15.39;69.92;100030.13;4977877;28;20420;-89
2023/09/11 02:45:14;;;;;;;;;;;;;;;15.60;69.93;100060.53;4961436;28;20058;-89
2023/09/11 02:47:40;;;;;;;0.65;0.65;;;;;;;15.62;69.52;100026.78;4978236;28;20003;-91
2023/09/11 02:50:06;;;;;;;1.10;0.60;;;;;;;15.82;68.11;100028.88;4978018;28;20394;-90
2023/09/11 02:52:31;;;;;;;0.43;0.43;;;;;;;15.88;68.57;100039.31;4977328;28;20049;-91
2023/09/11 02:54:57;;;;;;;0.30;0.30;;;;;;;15.69;67.85;99987.56;4977517;28;20038;-89
2023/09/11 02:57:22;;;;;;;;;;;;;;;16.06;68.00;100058.25;4960997;28;20030;-90
2023/09/11 02:59:47;;;;;;;0.88;0.68;;;;;;;16.02;67.81;100041.53;4977009;28;19996;-89
2023/09/11 03:02:13;;;;;;;0.75;0.63;;;;;;;15.63;68.03;100007.28;4978066;28;20026;-90
2023/09/11 03:04:38;;;;;;;0.25;0.25;;;;;;;15.47;68.61;99987.38;4977201;28;20034;-88
2023/09/11 03:07:04;;;;;;;0.32;0.32;;;;;;;15.88;68.16;100030.44;4960848;28;20037;-91
2023/09/11 03:09:29;;;;;;;;;;;;;;;15.96;68.16;100052.38;4979526;28;20031;-92
2023/09/11 03:11:55;;;;;;;1.13;0.73;;;;;;;15.62;68.80;99996.69;4996424;28;19909;-92
2023/09/11 03:14:21;;;;;;;1.10;1.00;;;;;;;15.97;68.65;100055.91;4972756;28;20066;-94
2023/09/11 03:16:46;;;;;;;0.73;0.60;;;;;;;15.86;69.00;100013.66;4960371;28;20548;-93
2023/09/11 03:19:12;;;;;;;;;;;;;;;15.83;70.23;100046.53;4961198;28;20038;-93
2023/09/11 03:21:38;;;;;;;0.55;0.55;;;;;;;15.85;70.28;100044.72;4960523;28;19961;-93
2023/09/11 03:24:03;;;;;;;;;;;;;;;15.83;69.82;100043.88;4977641;28;20046;-93
2023/09/11 03:26:29;;;;;;;0.55;0.55;;;;;;;15.72;69.80;100033.59;4977635;28;19971;-91
2023/09/11 03:28:55;;;;;;;4.38;1.30;;;;;;;15.27;71.07;100001.25;4960210;28;20041;-90
2023/09/11 03:31:20;;;;;;;2.13;1.40;;;;;;;15.35;71.29;100023.16;4977522;28;20126;-91
2023/09/11 03:33:46;;;;;;;13.75;1.52;;;;;;;15.44;70.30;100000.75;4977048;28;20118;-92
2023/09/11 03:36:16;;;;;;;34.35;3.42;;;;;;;15.63;70.38;100028.53;4976955;28;20085;-93
2023/09/11 03:38:43;;;;;;;3.72;2.00;;;;;;;15.47;70.38;99993.56;4960575;28;20035;-92
2023/09/11 03:41:12;;;;;;;0.20;0.20;;;;;;;15.78;70.10;100040.50;4977667;28;20037;-94
2023/09/11 03:43:39;;;;;;;0.40;0.40;;;;;;;15.55;70.31;100022.56;4959812;28;20052;-95
2023/09/11 03:46:05;;;;;;;0.30;0.30;;;;;;;15.79;70.69;100049.38;4959707;28;20469;-89
2023/09/11 03:48:30;;;;;;;0.20;0.20;;;;;;;15.31;70.49;99990.50;4974591;28;20417;-88
2023/09/11 03:50:56;;;;;;;0.10;0.10;;;;;;;15.58;70.64;100052.63;4974921;28;20031;-89
2023/09/11 03:53:22;;;;;;;0.35;0.35;;;;;;;15.60;70.74;100030.41;4974412;28;20472;-95
2023/09/11 03:55:47;;;;;;;;;;;;;;;15.69;70.66;100054.06;4975022;28;20038;-94
2023/09/11 03:58:12;;;;;;;2.47;2.25;;;;;;;15.55;71.08;100039.41;4972624;28;19921;-90
2023/09/11 04:00:38;;;;;;;0.32;0.30;;;;;;;15.86;70.54;100064.22;4959845;28;20038;-95
2023/09/11 04:03:04;;;;;;;1.08;1.08;;;;;;;15.69;70.39;100024.81;4952784;28;20094;-95
2023/09/11 04:05:29;;;;;;;;;;;;;;;15.87;70.44;100053.53;4937918;28;20031;-91
2023/09/11 04:07:55;;;;;;;0.20;0.20;;;;;;;15.73;70.55;100034.44;4952618;29;20392;-90
2023/09/11 04:10:20;;;;;;;0.95;0.95;;;;;;;15.80;71.17;100057.31;4956783;28;20121;-91
2023/09/11 04:12:46;;;;;;;;;;;;;;;15.65;71.77;100055.94;4972455;28;20027;-91
2023/09/11 04:15:11;;;;;;;0.10;0.10;;;;;;;15.51;71.72;100044.88;4955370;28;19921;-94
2023/09/11 04:17:37;;;;;;;7.03;2.42;;;;;;;15.42;70.66;100045.13;4941404;28;20047;-89
2023/09/11 04:20:03;;;;;;;;;;;;;;;15.63;69.89;100059.56;4951466;28;20493;-91
2023/09/11 04:22:28;;;;;;;0.30;0.30;;;;;;;15.37;70.94;100077.16;4961439;28;19926;-91
2023/09/11 04:24:54;;;;;;;0.25;0.25;;;;;;;14.99;71.72;100031.28;4972815;28;20031;-92
2023/09/11 04:27:19;;;;;;;0.35;0.35;;;;;;;15.07;72.33;100015.97;4953786;28;20045;-87
2023/09/11 04:29:45;;;;;;;2.83;1.05;;;;;;;15.21;71.78;100035.09;4957130;28;20050;-89
2023/09/11 04:32:12;;;;;;;0.30;0.30;;;;;;;15.14;71.53;100020.22;4975011;28;20034;-87
2023/09/11 04:34:37;;;;;;;0.60;0.60;;;;;;;15.46;71.71;100078.66;4969143;28;20034;-88
2023/09/11 04:37:03;;;;;;;0.45;0.45;;;;;;;15.22;72.82;100036.81;4969045;28;20039;-88
2023/09/11 04:39:28;;;;;;;1.17;1.08;;;;;;;15.34;72.08;100040.91;4971501;28;20042;-88
2023/09/11 04:41:55;;;;;;;0.32;0.32;;;;;;;15.01;72.51;99990.50;4967140;28;20027;-87
2023/09/11 04:44:20;;;;;;;2.10;0.75;;;;;;;15.28;73.01;100034.91;4935669;29;20422;-87
2023/09/11 04:46:46;;;;;;;0.38;0.38;;;;;;;15.43;73.33;100055.72;4958291;28;20035;-89
2023/09/11 04:49:11;;;;;;;;;;;;;;;15.50;74.10;100083.84;4953597;28;20101;-90
2023/09/11 04:51:36;;;;;;;0.20;0.20;;;;;;;15.64;73.64;100079.94;4951685;28;20553;-90
2023/09/11 04:54:02;;;;;;;;;;;;;;;15.95;73.07;100081.69;4955720;28;20043;-89
2023/09/11 04:56:29;;;;;;;1.20;1.00;;;;;;;15.91;72.65;100038.31;4973342;28;19914;-95
2023/09/11 04:58:54;;;;;;;1.10;1.02;;;;;;;16.12;72.12;100068.72;4939903;28;20035;-94
2023/09/11 05:01:20;;;;;;;0.10;0.10;;;;;;;16.24;72.10;100078.97;4956729;28;20398;-93
2023/09/11 05:03:45;;;;;;;1.33;1.27;;;;;;;16.29;72.28;100077.03;4956501;28;20039;-94
2023/09/11 05:06:10;;;;;;;;;;;;;;;16.31;72.74;100087.63;4956096;28;20058;-96
2023/09/11 05:08:36;;;;;;;1.83;1.65;;;;;;;16.16;72.81;100072.13;4978775;28;19942;-93
2023/09/11 05:11:02;;;;;;;1.48;1.38;;;;;;;16.50;72.30;100093.22;4956436;28;20038;-94
2023/09/11 05:13:27;;;;;;;0.95;0.35;;;;;;;16.37;72.71;100057.28;4957621;28;20105;-87
2023/09/11 05:15:53;;;;;;;5.80;1.45;;;;;;;16.56;72.96;100070.81;4973143;28;20413;-87
2023/09/11 05:18:18;;;;;;;;;;;;;;;16.93;73.66;100080.25;4972038;28;20032;-88
2023/09/11 05:20:44;;;;;;;0.32;0.32;;;;;;;17.28;72.47;100078.13;4965481;28;19922;-88
2023/09/11 05:23:10;;;;;;;2.65;2.45;;;;;;;17.42;72.27;100064.28;4952662;28;20062;-88
2023/09/11 05:25:38;;;;;;;1.67;0.95;;;;;;;17.60;71.34;100044.91;4951902;28;20058;-87
2023/09/11 05:28:05;;;;;;;0.25;0.25;;;;;;;17.81;70.40;100050.34;4952485;28;20510;-86
2023/09/11 05:30:31;;;;;;;0.30;0.30;;;;;;;18.28;69.03;100076.13;4952815;28;20117;-86
2023/09/11 05:32:56;;;;;;;0.68;0.68;;;;;;;18.31;67.28;100050.16;4961586;28;20480;-93
2023/09/11 05:35:22;;;;;;;0.57;0.57;;;;;;;18.56;67.46;100068.69;4928315;28;20054;-86
2023/09/11 05:37:47;;;;;;;0.75;0.70;;;;;;;18.90;66.09;100061.06;4980713;28;20101;-87
2023/09/11 05:40:13;;;;;;;1.10;0.63;;;;;;;18.98;65.47;100061.59;4951729;28;20031;-87
2023/09/11 05:42:38;;;;;;;1.10;1.08;;;;;;;19.33;64.41;100072.53;4953586;28;20159;-87
2023/09/11 05:45:05;;;;;;;0.40;0.40;;;;;;;19.16;64.00;100024.28;4961547;28;20203;-89
2023/09/11 05:47:31;;;;;;;1.35;1.30;;;;;;;19.61;63.62;100076.59;4949342;28;20064;-90
2023/09/11 05:50:00;;;;;;;1.02;1.00;;;;;;;19.53;62.13;100054.69;4961487;28;20888;-85
2023/09/11 05:52:27;;;;;;;0.20;0.20;;;;;;;19.61;62.41;100021.28;4956059;28;20142;-89
2023/09/11 05:54:52;;;;;;;0.73;0.47;;;;;;;20.03;61.19;100052.34;4952831;28;20038;-88
2023/09/11 05:57:18;;;;;;;3.63;2.08;;;;;;;20.13;60.75;100066.13;4960277;28;20037;-90
2023/09/11 05:59:43;;;;;;;1.85;1.75;;;;;;;20.09;60.30;100067.22;4950808;29;20031;-90
2023/09/11 06:02:09;;;;;;;5.40;1.05;;;;;;;20.27;59.75;100060.09;4955414;28;20030;-91
2023/09/11 06:04:34;;;;;;;0.40;0.40;;;;;;;20.26;59.75;100028.03;4943663;28;20482;-91
2023/09/11 06:06:59;;;;;;;5.07;0.73;;;;;;;20.60;59.50;100048.63;4950962;28;20035;-92
2023/09/11 06:09:25;;;;;;;1.20;0.93;;;;;;;20.87;58.98;100049.06;4953116;29;20081;-96
2023/09/11 06:11:52;;;;;;;10.85;1.92;;;;;;;20.99;58.71;100060.97;4935765;29;20034;-92
2023/09/11 06:14:17;;;;;;;1.45;1.13;;;;;;;21.22;57.54;100048.13;4952519;28;20070;-92
2023/09/11 06:16:48;;;;;;;0.55;0.47;;;;;;;21.65;57.04;100040.47;4961686;28;20063;-92
2023/09/11 06:19:14;;;;;;;0.32;0.32;;;;;;;22.06;54.82;100068.59;4955359;28;20055;-96
2023/09/11 06:21:44;;;;;;;0.93;0.93;;;;;;;21.94;54.67;100044.19;4952411;28;20434;-96
2023/09/11 06:24:12;;;;;;;0.30;0.30;;;;;;;21.84;54.21;100042.97;4953231;28;20122;-96
2023/09/11 06:26:41;;;;;;;1.45;1.17;;;;;;;21.90;54.86;100053.34;4934393;28;20031;-96
2023/09/11 06:29:06;;;;;;;0.73;0.73;;;;;;;22.17;53.45;100076.94;4957611;29;20032;-96
2023/09/11 06:32:15;;;;;;;0.28;0.28;;;;;;;22.52;52.97;100074.94;4959458;28;20029;-93
2023/09/11 06:34:41;;;;;;;2.42;1.15;;;;;;;22.66;53.39;100066.06;4950961;29;20133;-93
2023/09/11 06:37:09;;;;;;;0.60;0.60;;;;;;;22.89;52.94;100064.66;4934372;29;20064;-94
2023/09/11 06:39:34;;;;;;;0.28;0.28;;;;;;;23.43;50.91;100079.34;4935974;29;20043;-93
2023/09/11 06:42:00;;;;;;;0.38;0.38;;;;;;;22.71;51.05;100045.13;4937063;29;20042;-95
2023/09/11 06:44:25;;;;;;;0.93;0.90;;;;;;;22.76;51.60;100042.16;4939765;29;20034;-95
2023/09/11 06:46:51;;;;;;;0.85;0.63;;;;;;;22.92;51.06;100047.47;4935297;29;20047;-90
2023/09/11 06:49:16;;;;;;;0.30;0.30;;;;;;;23.33;50.86;100045.91;4953543;29;20035;-96
2023/09/11 06:51:42;;;;;;;0.22;0.22;;;;;;;23.43;50.63;100044.38;4934242;29;20050;-96
2023/09/11 06:54:09;;;;;;;0.60;0.52;;;;;;;24.14;49.20;100069.47;4937677;29;20053;-94
2023/09/11 06:56:35;;;;;;;1.42;0.85;;;;;;;23.95;47.94;100029.41;4986828;23;20063;-94
2023/09/11 06:59:01;;;;;;;1.33;1.23;;;;;;;24.01;48.56;100064.03;4963325;28;20122;-96
2023/09/11 07:01:29;;;;;;;0.85;0.75;;;;;;;24.24;47.88;100021.25;4979439;28;20050;-96
2023/09/11 07:03:54;;;;;;;0.40;0.40;;;;;;;24.16;47.39;100018.19;4960828;28;20454;-95
2023/09/11 07:06:20;;;;;;;0.30;0.30;;;;;;;25.02;47.07;100060.91;4927285;28;20038;-91
2023/09/11 07:08:45;;;;;;;0.43;0.43;;;;;;;25.19;45.58;100032.72;4952052;28;20034;-92
2023/09/11 07:11:11;;;;;;;1.42;0.43;;;;;;;25.66;44.48;100066.31;4951946;28;20114;-95
2023/09/11 07:13:37;;;;;;;0.65;0.65;;;;;;;25.53;43.59;100050.16;4918030;29;20043;-96
2023/09/11 07:16:04;;;;;;;1.35;1.25;;;;;;;25.45;44.40;100038.16;4933898;29;20031;-89
2023/09/11 07:18:31;;;;;;;0.30;0.30;;;;;;;25.78;43.74;100067.28;4950887;29;20482;-94
2023/09/11 07:20:56;;;;;;;0.50;0.50;;;;;;;25.83;42.56;100032.69;4952094;29;20031;-92
2023/09/11 07:23:23;;;;;;;1.50;0.47;;;;;;;25.91;42.78;100062.69;4955291;28;20066;-91
2023/09/11 07:25:53;;;;;;;2.15;2.05;;;;;;;26.07;43.18;100059.78;4957858;29;20653;-94
2023/09/11 07:28:18;;;;;;;2.65;1.52;;;;;;;26.55;41.80;100056.16;4956047;29;20039;-95
2023/09/11 07:30:47;;;;;;;0.88;0.88;;;;;;;26.32;42.44;100033.59;4939600;28;20043;-87
2023/09/11 07:33:13;;;;;;;1.52;1.33;;;;;;;26.33;42.09;100047.97;4975721;28;20035;-94
2023/09/11 07:35:41;;;;;;;0.63;0.57;;;;;;;27.11;40.41;100065.47;4974950;28;20509;-96
2023/09/11 07:38:11;;;;;;;1.85;0.73;;;;;;;27.28;39.48;100050.59;4977044;28;20042;-95
2023/09/11 07:40:38;;;;;;;1.40;1.30;;;;;;;26.88;40.79;100034.78;4974578;28;20130;-90
2023/09/11 07:43:04;;;;;;;0.52;0.52;;;;;;;27.23;39.30;100042.84;4957089;28;20394;-89
2023/09/11 07:45:29;;;;;;;4.97;0.68;;;;;;;27.25;39.51;100058.97;4974591;28;20041;-92
2023/09/11 07:47:56;;;;;;;1.85;0.90;;;;;;;27.58;39.04;100062.72;4940023;29;20046;-96
2023/09/11 07:50:23;;;;;;;0.73;0.73;;;;;;;27.29;38.95;100014.41;4915774;29;20039;-96
2023/09/11 07:53:10;;;;;;;1.00;0.90;;;;;;;26.52;40.46;100060.97;4939959;29;20031;-96
2023/09/11 07:59:00;;;;;;;1.75;1.05;;;;;;;26.90;39.53;100041.81;4943206;29;20063;-96
2023/09/11 08:01:26;;;;;;;0.13;0.13;;;;;;;27.16;38.88;100050.59;4944958;29;20111;-96
2023/09/11 08:03:52;;;;;;;1.20;1.10;;;;;;;27.26;39.06;100042.59;4926849;29;20039;-92
2023/09/11 08:06:19;;;;;;;1.08;0.98;;;;;;;27.69;38.55;100060.00;4924285;29;20036;-94
2023/09/11 08:08:45;;;;;;;2.88;1.30;;;;;;;27.59;39.75;100042.75;4910620;29;20161;-96
2023/09/11 08:11:16;;;;;;;1.90;1.80;;;;;;;27.62;37.55;100021.72;4940001;29;20036;-93
2023/09/11 08:14:29;;;;;;;0.95;0.88;;;;;;;28.21;36.93;100039.47;4927869;29;20107;-96
2023/09/11 08:17:24;;;;;;;;;;;;;;;27.99;37.59;100036.81;4887611;29;20201;-96
2023/09/11 08:19:51;;;;;;;0.43;0.43;;;;;;;28.03;37.78;100038.28;4902794;29;19923;-96
2023/09/11 08:22:29;;;;;;;4.78;1.63;;;;;;;28.06;37.93;100039.91;4876299;29;20077;-96
2023/09/11 08:25:42;;;;;;;1.23;1.13;;;;;;;28.00;36.79;99977.03;4900879;29;20040;-94
2023/09/11 08:28:16;;;;;;;0.75;0.75;;;;;;;28.53;35.89;100041.34;4890069;29;20037;-90
2023/09/11 08:30:45;;;;;;;0.60;0.60;;;;;;;28.58;34.64;100009.25;4920834;29;20036;-96
2023/09/11 08:33:12;;;;;;;0.43;0.43;;;;;;;28.15;34.88;100017.44;4919290;29;20123;-89
2023/09/11 08:35:39;;;;;;;0.75;0.75;;;;;;;28.02;35.32;100007.63;4916869;29;20066;-89
2023/09/11 08:38:05;;;;;;;5.78;1.42;;;;;;;27.78;35.36;100015.03;4907466;29;20040;-92
2023/09/11 08:44:12;;;;;;;0.93;0.88;;;;;;;27.82;35.76;99940.59;5039679;23;20074;-96
2023/09/11 08:46:47;;;;;;;0.20;0.20;;;;;;;27.72;35.84;99909.88;4991362;28;20046;-94
2023/09/11 08:49:17;;;;;;;;;;;;;;;28.13;35.52;100012.16;5007206;28;20023;-90
2023/09/11 08:51:51;;;;;;;0.40;0.40;;;;;;;27.82;31.99;99919.81;5013419;28;19926;-90
2023/09/11 08:54:18;;;;;;;1.50;1.02;;;;;;;27.99;31.24;99959.06;5043770;23;20058;-96
2023/09/11 08:56:44;;;;;;;0.30;0.30;;;;;;;27.18;28.55;99944.88;4983287;28;20474;-94
2023/09/11 08:59:13;;;;;;;1.15;0.73;;;;;;;27.06;27.46;99973.78;4984598;28;20434;-90
2023/09/11 09:01:40;;;;;;;1.02;0.98;;;;;;;27.10;29.78;99980.69;4981317;28;20019;-91
2023/09/11 09:04:07;;;;;;;0.85;0.32;;;;;;;26.60;29.81;99924.16;5041539;23;20058;-96
2023/09/11 09:06:34;;;;;;;0.20;0.20;;;;;;;26.66;33.35;99935.50;5001312;28;20040;-96
2023/09/11 09:09:00;;;;;;;0.85;0.70;;;;;;;26.96;31.99;99915.97;5006808;28;20046;-96
2023/09/11 09:11:26;;;;;;;1.10;0.90;;;;;;;27.27;30.73;99919.75;4988746;28;20042;-96
2023/09/11 09:13:52;;;;;;;0.75;0.75;;;;;;;27.14;30.27;99905.50;5006245;28;20061;-96
2023/09/11 09:16:18;;;;;;;0.25;0.25;;;;;;;27.54;29.90;99961.84;5018809;23;20046;-96
2023/09/11 09:18:49;;;;;;;0.85;0.65;;;;;;;27.41;31.09;99898.84;5009223;28;20050;-96
2023/09/11 09:21:20;;;;;;;1.17;1.08;;;;;;;27.70;29.08;99961.47;5010746;28;20038;-96
2023/09/11 09:23:45;;;;;;;0.13;0.13;;;;;;;27.58;27.73;99968.75;4981602;28;20044;-96
2023/09/11 09:26:12;;;;;;;0.20;0.20;;;;;;;27.54;28.09;99971.84;4980383;28;20376;-91
2023/09/11 09:28:47;;;;;;;1.10;0.22;;;;;;;27.35;27.44;99977.91;4999560;28;20030;-96
2023/09/11 09:31:25;;;;;;;0.15;0.15;;;;;;;27.24;28.21;99951.66;4984898;28;20026;-90
2023/09/11 09:33:52;;;;;;;1.35;0.73;;;;;;;27.53;27.00;99962.84;4985896;28;20014;-90
2023/09/11 09:36:18;;;;;;;0.00;0.00;;;;;;;27.30;27.61;99957.41;4980238;28;20026;-96
2023/09/11 09:38:44;;;;;;;0.20;0.20;;;;;;;27.32;26.82;99979.00;5007393;28;20492;-96
2023/09/11 09:41:12;;;;;;;0.38;0.38;;;;;;;27.60;27.67;99960.50;4996361;28;20097;-94
2023/09/11 09:43:38;;;;;;;0.20;0.20;;;;;;;27.46;27.02;99976.03;5036598;23;20066;-94
2023/09/11 09:46:20;;;;;;;1.55;0.98;;;;;;;27.17;26.60;99953.97;4976990;28;20030;-95
2023/09/11 09:48:46;;;;;;;0.10;0.10;;;;;;;26.67;27.57;99938.06;4978579;28;20034;-96
2023/09/11 09:51:11;;;;;;;0.10;0.10;;;;;;;27.02;26.91;99964.19;4979888;28;20027;-91
2023/09/11 09:53:41;;;;;;;0.30;0.30;;;;;;;27.06;26.22;99954.84;4981218;28;20026;-95
2023/09/11 09:56:08;;;;;;;0.15;0.15;;;;;;;27.17;26.19;99951.25;4986026;28;20157;-95
2023/09/11 09:58:38;;;;;;;0.20;0.20;;;;;;;27.20;26.42;99945.59;4982361;28;20121;-96
2023/09/11 10:01:10;;;;;;;0.10;0.10;;;;;;;27.48;26.29;99937.97;4988783;28;20030;-95
2023/09/11 10:03:53;;;;;;;0.35;0.35;;;;;;;27.34;27.01;99939.09;4966863;28;20031;-88
2023/09/11 10:06:33;;;;;;;0.75;0.75;;;;;;;26.97;27.16;99909.56;4978636;28;20018;-96
2023/09/11 10:09:13;;;;;;;0.52;0.52;;;;;;;27.25;26.61;99916.31;4992383;28;20053;-91
2023/09/11 10:11:41;;;;;;;0.13;0.13;;;;;;;27.43;26.74;99922.09;4976047;28;20043;-94
2023/09/11 10:16:59;;;;;;;0.50;0.50;;;;;;;27.44;28.06;99922.97;4981247;28;20046;-95
2023/09/11 10:19:28;;;;;;;0.85;0.57;;;;;;;27.39;27.15;99898.97;4963686;28;20045;-96
2023/09/11 10:21:54;;;;;;;0.52;0.32;;;;;;;26.98;26.00;99898.59;4947816;28;20030;-95
2023/09/11 10:24:19;;;;;;;0.15;0.15;;;;;;;26.82;25.89;99862.97;4975536;28;20042;-92
2023/09/11 10:26:54;;;;;;;5.07;1.30;;;;;;;26.94;26.85;99904.38;4968311;28;20113;-91
2023/09/11 10:29:53;;;;;;;0.00;0.00;;;;;;;26.85;26.02;99895.19;4987543;28;20026;-96
2023/09/11 10:32:34;;;;;;;0.77;0.50;;;;;;;27.08;26.30;99887.91;4978705;28;20042;-94
2023/09/11 10:35:03;;;;;;;0.10;0.10;;;;;;;27.20;25.53;99910.41;4983898;28;20294;-92
2023/09/11 10:37:30;;;;;;;0.20;0.20;;;;;;;27.18;26.59;99879.91;4956907;28;20026;-93
2023/09/11 10:39:59;;;;;;;0.52;0.40;;;;;;;27.23;26.37;99898.47;4954405;28;20031;-91
2023/09/11 10:42:33;;;;;;;0.10;0.10;;;;;;;26.84;26.36;99882.63;4968519;28;20057;-95
2023/09/11 10:45:02;;;;;;;0.10;0.10;;;;;;;27.00;26.20;99870.56;5058791;23;20061;-95
2023/09/11 10:47:28;;;;;;;0.63;0.55;;;;;;;27.23;27.99;99871.41;4964051;28;20039;-94
2023/09/11 10:49:57;;;;;;;0.30;0.30;;;;;;;27.79;26.10;99889.38;5031921;23;20113;-92
2023/09/11 10:52:24;;;;;;;1.38;0.70;;;;;;;27.94;25.88;99890.78;4958729;28;20039;-93
2023/09/11 10:54:51;;;;;;;0.40;0.17;;;;;;;28.09;25.78;99882.38;4973470;28;20050;-96
2023/09/11 10:57:18;;;;;;;0.57;0.43;;;;;;;27.72;25.16;99875.47;4958984;28;20505;-96
2023/09/11 10:59:47;;;;;;;0.20;0.20;;;;;;;27.79;25.82;99889.38;4986554;28;20061;-92
2023/09/11 11:02:12;;;;;;;0.15;0.13;;;;;;;27.78;25.36;99910.19;4982450;28;20033;-88
2023/09/11 11:04:39;;;;;;;0.20;0.15;;;;;;;27.69;24.63;99870.31;4944826;28;20126;-95
2023/09/11 11:07:09;;;;;;;1.33;0.45;;;;;;;27.64;25.27;99831.94;4994667;28;20049;-94
2023/09/11 11:09:37;;;;;;;0.00;0.00;;;;;;;27.97;25.01;99884.28;4942782;28;20049;-96
2023/09/11 11:12:10;;;;;;;0.20;0.20;;;;;;;27.92;25.09;99856.69;4957786;28;20039;-95
2023/09/11 11:15:16;;;;;;;0.00;0.00;;;;;;;28.01;25.50;99847.81;4961377;28;20022;-94
2023/09/11 11:17:45;;;;;;;0.15;0.15;;;;;;;28.03;24.75;99878.34;4943271;23;20020;-96
2023/09/11 11:20:20;;;;;;;0.00;0.00;;;;;;;27.85;24.20;99845.47;4947878;29;20117;-96
2023/09/11 11:22:48;;;;;;;1.45;1.35;;;;;;;27.52;24.48;99796.75;4956870;29;20473;-96
2023/09/11 11:25:18;;;;;;;1.55;0.75;;;;;;;27.43;24.52;99848.13;4940292;28;20133;-92
2023/09/11 11:27:45;;;;;;;0.60;0.28;;;;;;;27.81;24.68;99863.03;4927447;29;20031;-95
2023/09/11 11:30:11;;;;;;;1.40;0.45;;;;;;;27.51;24.26;99803.16;4960241;29;20039;-93
2023/09/11 11:32:42;;;;;;;0.30;0.25;;;;;;;27.59;23.89;99826.03;4955526;29;20055;-92
2023/09/11 11:35:13;;;;;;;0.90;0.90;;;;;;;27.49;23.62;99824.09;4955419;29;20035;-96
2023/09/11 11:37:44;;;;;;;0.13;0.13;;;;;;;27.66;25.45;99794.72;4956049;29;20031;-89
2023/09/11 11:40:10;;;;;;;0.50;0.50;;;;;;;28.05;25.48;99830.25;4952772;29;20398;-93
2023/09/11 11:42:41;;;;;;;1.25;1.05;;;;;;;28.10;25.78;99835.28;4937119;29;20031;-94
2023/09/11 11:45:07;;;;;;;1.20;0.63;;;;;;;28.03;26.32;99792.44;4936745;29;20031;-91
2023/09/11 11:47:33;;;;;;;6.35;2.08;;;;;;;28.44;24.90;99805.22;4953408;28;20023;-93